Time;durP1;ratioP1;P1;durP2;ratioP2;P2;SDS_P1;SDS_P2;PMS_P1;PMS_P2;Temp;Humidity;BMP_temperature;BMP_pressure;BME280_temperature;BME280_humidity;BME280_pressure;Samples;Min_cycle;Max_cycle;Signal;HPM_P1;HPM_P2
2021/07/03 00:00:27;;;;;;;7.90;4.20;;;22.40;90.10;;;;;;5052599;28;20013;-61
2021/07/03 00:02:53;;;;;;;5.43;3.47;;;22.40;90.00;;;;;;5053667;28;20070;-61
2021/07/03 00:05:19;;;;;;;5.20;3.63;;;22.40;90.00;;;;;;5053313;28;20025;-61
2021/07/03 00:07:44;;;;;;;4.85;3.70;;;22.40;90.10;;;;;;5053312;28;20021;-60
2021/07/03 00:10:11;;;;;;;8.20;5.45;;;22.40;90.10;;;;;;5052020;28;20564;-61
2021/07/03 00:12:36;;;;;;;9.20;6.72;;;22.50;90.20;;;;;;5038326;28;20034;-61
2021/07/03 00:15:06;;;;;;;8.68;7.30;;;22.50;90.10;;;;;;5034729;28;20029;-61
2021/07/03 00:17:31;;;;;;;8.93;6.82;;;22.50;90.00;;;;;;5033378;28;20029;-61
2021/07/03 00:19:57;;;;;;;9.13;7.25;;;22.60;89.80;;;;;;5049793;28;20017;-61
2021/07/03 00:22:23;;;;;;;9.63;7.00;;;22.50;89.80;;;;;;5053238;28;20024;-61
2021/07/03 00:24:48;;;;;;;7.85;5.88;;;22.50;89.80;;;;;;5049520;28;20049;-61
2021/07/03 00:27:14;;;;;;;9.18;5.25;;;22.60;89.80;;;;;;5052871;28;20024;-61
2021/07/03 00:29:39;;;;;;;6.55;4.40;;;22.60;89.60;;;;;;5053109;28;20033;-61
2021/07/03 00:32:05;;;;;;;6.28;4.28;;;22.60;89.40;;;;;;5040790;28;20029;-61
2021/07/03 00:34:31;;;;;;;4.63;3.65;;;22.60;89.00;;;;;;5033736;28;20025;-61
2021/07/03 00:36:57;;;;;;;4.93;3.85;;;22.60;88.60;;;;;;5044159;28;20028;-61
2021/07/03 00:39:22;;;;;;;6.80;4.47;;;22.60;88.30;;;;;;5051078;28;20025;-61
2021/07/03 00:41:48;;;;;;;6.88;4.30;;;22.60;87.90;;;;;;5052535;28;20017;-61
2021/07/03 00:44:25;;;;;;;7.28;4.25;;;22.60;87.90;;;;;;5050079;28;20025;-61
2021/07/03 00:46:50;;;;;;;6.97;4.10;;;22.50;87.30;;;;;;5051554;28;20038;-61
2021/07/03 00:49:16;;;;;;;7.75;4.00;;;22.50;87.00;;;;;;5037855;28;20478;-61
2021/07/03 00:51:42;;;;;;;5.70;4.20;;;22.50;86.70;;;;;;5032742;28;20028;-61
2021/07/03 00:54:09;;;;;;;7.68;4.20;;;22.50;86.80;;;;;;5051724;28;20116;-61
2021/07/03 00:56:35;;;;;;;5.38;3.90;;;22.50;86.70;;;;;;5052738;28;20025;-61
2021/07/03 00:59:00;;;;;;;6.30;4.20;;;22.40;86.50;;;;;;5039669;28;20048;-61
2021/07/03 01:01:26;;;;;;;5.72;3.95;;;22.40;86.00;;;;;;5043757;28;20021;-60
2021/07/03 01:03:52;;;;;;;7.55;4.30;;;22.40;85.50;;;;;;5051327;28;20017;-61
2021/07/03 01:06:17;;;;;;;5.82;4.22;;;22.40;85.20;;;;;;5052571;28;20090;-60
2021/07/03 01:08:43;;;;;;;6.43;4.10;;;22.30;85.30;;;;;;5041885;28;20029;-61
2021/07/03 01:11:09;;;;;;;5.03;4.45;;;22.30;84.70;;;;;;5040392;28;20321;-61
2021/07/03 01:13:34;;;;;;;7.85;4.60;;;22.30;84.60;;;;;;5047917;28;20060;-61
2021/07/03 01:16:00;;;;;;;6.93;4.60;;;22.20;84.50;;;;;;5032532;28;20049;-61
2021/07/03 01:18:26;;;;;;;7.40;5.05;;;22.20;84.30;;;;;;5034337;28;20033;-61
2021/07/03 01:20:53;;;;;;;8.05;5.15;;;22.20;84.10;;;;;;5032940;28;20025;-61
2021/07/03 01:23:23;;;;;;;6.90;5.18;;;22.20;84.20;;;;;;5032803;28;20067;-61
2021/07/03 01:25:55;;;;;;;6.40;5.15;;;22.20;84.50;;;;;;5049167;28;20031;-61
2021/07/03 01:28:21;;;;;;;6.70;4.80;;;22.20;84.40;;;;;;5039002;28;20147;-61
2021/07/03 01:30:47;;;;;;;7.63;5.03;;;22.10;84.40;;;;;;5032547;28;20030;-61
2021/07/03 01:33:14;;;;;;;7.18;5.05;;;22.10;84.50;;;;;;5032656;28;20045;-60
2021/07/03 01:35:41;;;;;;;8.15;5.47;;;22.10;84.50;;;;;;5032407;28;20025;-60
2021/07/03 01:38:07;;;;;;;7.50;4.60;;;22.10;84.50;;;;;;5039591;28;20048;-60
2021/07/03 01:40:32;;;;;;;5.80;4.40;;;22.10;84.30;;;;;;5051001;28;20044;-61
2021/07/03 01:42:58;;;;;;;8.55;4.90;;;22.10;84.00;;;;;;5053294;28;20045;-60
2021/07/03 01:45:24;;;;;;;5.95;4.68;;;22.10;83.80;;;;;;5040941;28;20139;-61
2021/07/03 01:47:49;;;;;;;6.63;4.75;;;22.10;83.80;;;;;;5041441;28;20444;-61
2021/07/03 01:50:16;;;;;;;6.57;4.82;;;22.00;83.60;;;;;;5051880;28;20024;-61
2021/07/03 01:52:42;;;;;;;8.60;5.57;;;22.00;83.30;;;;;;5056086;28;20029;-61
2021/07/03 01:55:11;;;;;;;8.57;5.22;;;22.00;83.20;;;;;;5055595;28;20021;-60
2021/07/03 01:57:37;;;;;;;7.85;5.40;;;22.00;83.50;;;;;;5055184;28;20025;-60
2021/07/03 02:00:06;;;;;;;6.05;4.78;;;22.00;83.60;;;;;;5042287;28;20472;-60
2021/07/03 02:02:32;;;;;;;6.80;5.28;;;22.00;83.50;;;;;;5053504;28;20021;-61
2021/07/03 02:04:58;;;;;;;6.13;5.03;;;22.00;83.50;;;;;;5055719;28;20028;-60
2021/07/03 02:07:23;;;;;;;7.18;5.18;;;22.00;83.40;;;;;;5055586;28;20104;-60
2021/07/03 02:09:49;;;;;;;7.43;5.28;;;22.00;83.30;;;;;;5047087;28;20024;-60
2021/07/03 02:12:15;;;;;;;10.35;5.03;;;22.00;82.90;;;;;;5054260;28;20541;-61
2021/07/03 02:14:40;;;;;;;7.10;5.68;;;22.00;82.70;;;;;;5055347;28;20159;-60
2021/07/03 02:17:06;;;;;;;10.05;5.60;;;22.00;82.80;;;;;;5055669;28;20047;-61
2021/07/03 02:19:31;;;;;;;6.20;4.88;;;22.10;82.90;;;;;;5044081;28;20028;-61
2021/07/03 02:21:57;;;;;;;7.10;5.50;;;22.10;82.60;;;;;;5035562;28;20041;-61
2021/07/03 02:24:23;;;;;;;6.50;4.93;;;22.10;82.50;;;;;;5035517;28;20079;-61
2021/07/03 02:26:48;;;;;;;9.30;5.22;;;22.10;82.80;;;;;;5055711;28;20071;-60
2021/07/03 02:29:14;;;;;;;7.22;5.53;;;22.10;82.70;;;;;;5055379;28;20108;-61
2021/07/03 02:31:40;;;;;;;9.02;5.03;;;22.10;82.80;;;;;;5055421;28;20543;-61
2021/07/03 02:34:05;;;;;;;7.35;5.20;;;22.20;83.00;;;;;;5055121;28;20025;-61
2021/07/03 02:36:31;;;;;;;5.95;5.32;;;22.20;82.90;;;;;;5052343;28;20025;-60
2021/07/03 02:38:57;;;;;;;8.60;5.35;;;22.20;82.90;;;;;;5045955;28;20079;-60
2021/07/03 02:41:23;;;;;;;7.45;5.10;;;22.30;82.90;;;;;;5053990;28;20104;-61
2021/07/03 02:43:49;;;;;;;6.65;5.50;;;22.30;82.30;;;;;;5054849;28;20025;-60
2021/07/03 02:46:15;;;;;;;9.55;5.28;;;22.40;82.00;;;;;;5054843;28;20091;-61
2021/07/03 02:48:41;;;;;;;8.27;5.15;;;22.40;82.00;;;;;;5048033;28;20061;-61
2021/07/03 02:51:07;;;;;;;6.35;4.70;;;22.50;81.50;;;;;;5036306;28;20028;-61
2021/07/03 02:53:33;;;;;;;5.78;4.88;;;22.50;81.50;;;;;;5052818;28;20096;-60
2021/07/03 02:56:00;;;;;;;8.18;4.82;;;22.60;81.20;;;;;;5051940;28;20578;-61
2021/07/03 02:58:26;;;;;;;7.10;5.13;;;22.70;81.00;;;;;;5049828;28;20029;-61
2021/07/03 03:00:52;;;;;;;8.23;5.50;;;22.80;80.50;;;;;;5034992;28;20029;-61
2021/07/03 03:03:18;;;;;;;7.30;5.32;;;22.80;80.40;;;;;;5053730;28;20024;-61
2021/07/03 03:05:43;;;;;;;7.80;5.40;;;22.90;80.30;;;;;;5054549;28;20397;-59
2021/07/03 03:08:10;;;;;;;9.20;5.18;;;23.00;80.10;;;;;;5054575;28;20540;-60
2021/07/03 03:10:36;;;;;;;7.30;5.20;;;23.10;79.50;;;;;;5048321;28;20030;-61
2021/07/03 03:13:01;;;;;;;7.00;4.85;;;23.20;78.90;;;;;;5048776;28;20029;-61
2021/07/03 03:15:27;;;;;;;5.95;4.82;;;23.30;79.00;;;;;;5049269;28;20033;-61
2021/07/03 03:17:53;;;;;;;6.75;4.90;;;23.30;78.40;;;;;;5053460;28;20036;-61
2021/07/03 03:20:18;;;;;;;8.77;5.13;;;23.40;78.40;;;;;;5034239;28;20021;-61
2021/07/03 03:22:44;;;;;;;6.90;5.20;;;23.50;78.20;;;;;;5037342;28;20025;-61
2021/07/03 03:25:10;;;;;;;7.05;4.90;;;23.50;77.90;;;;;;5050048;28;20057;-61
2021/07/03 03:27:36;;;;;;;7.72;5.80;;;23.60;77.70;;;;;;5052879;28;20025;-61
2021/07/03 03:30:04;;;;;;;7.78;5.75;;;23.60;77.60;;;;;;5052044;28;20493;-61
2021/07/03 03:32:29;;;;;;;10.02;6.30;;;23.70;78.30;;;;;;5052912;28;20079;-61
2021/07/03 03:34:55;;;;;;;8.32;6.32;;;23.80;78.30;;;;;;5053614;28;20029;-61
2021/07/03 03:37:21;;;;;;;9.10;5.82;;;24.00;78.30;;;;;;5043079;28;20437;-61
2021/07/03 03:39:46;;;;;;;8.23;5.55;;;24.10;77.90;;;;;;5040603;28;20032;-61
2021/07/03 03:42:12;;;;;;;9.63;5.32;;;24.40;77.80;;;;;;5054200;28;20504;-61
2021/07/03 03:44:37;;;;;;;5.43;4.60;;;24.60;76.70;;;;;;5053477;28;20508;-61
2021/07/03 03:47:03;;;;;;;6.30;4.90;;;24.90;76.00;;;;;;5054003;28;20028;-61
2021/07/03 03:49:29;;;;;;;7.43;5.10;;;25.30;75.20;;;;;;5039163;28;20029;-61
2021/07/03 03:51:55;;;;;;;7.57;4.50;;;25.90;74.30;;;;;;5033763;28;20484;-61
2021/07/03 03:54:22;;;;;;;6.63;4.32;;;26.60;72.70;;;;;;5034731;28;20104;-61
2021/07/03 03:56:47;;;;;;;5.78;4.50;;;27.40;71.00;;;;;;5053897;28;20029;-61
2021/07/03 03:59:14;;;;;;;5.60;4.05;;;28.20;69.00;;;;;;5043406;28;20160;-61
2021/07/03 04:01:40;;;;;;;7.15;4.50;;;29.00;67.20;;;;;;5053793;28;20033;-61
2021/07/03 04:04:06;;;;;;;6.32;4.45;;;29.80;65.10;;;;;;5053517;28;20021;-61
2021/07/03 04:06:31;;;;;;;8.93;4.43;;;30.50;63.30;;;;;;5053363;28;20029;-61
2021/07/03 04:08:57;;;;;;;6.05;4.18;;;31.20;61.30;;;;;;5048554;28;20029;-61
2021/07/03 04:11:23;;;;;;;6.60;4.32;;;31.80;59.80;;;;;;5051188;28;20480;-61
2021/07/03 04:13:48;;;;;;;5.97;4.72;;;32.40;58.20;;;;;;5047244;28;20033;-62
2021/07/03 04:16:14;;;;;;;9.10;5.22;;;32.90;57.10;;;;;;5035649;28;20028;-61
2021/07/03 04:18:40;;;;;;;8.18;4.28;;;33.30;55.80;;;;;;5050331;28;20032;-61
2021/07/03 04:21:05;;;;;;;8.50;4.70;;;33.60;54.80;;;;;;5033545;28;20049;-61
2021/07/03 04:23:31;;;;;;;9.10;4.45;;;34.00;53.80;;;;;;5033016;28;20021;-61
2021/07/03 04:25:57;;;;;;;8.60;4.55;;;34.20;53.10;;;;;;5046388;28;20060;-61
2021/07/03 04:28:22;;;;;;;7.25;5.40;;;34.40;52.40;;;;;;5052189;28;20640;-61
2021/07/03 04:30:48;;;;;;;5.80;4.90;;;34.50;52.60;;;;;;5053135;28;20488;-61
2021/07/03 04:33:13;;;;;;;6.63;4.82;;;34.60;51.60;;;;;;5053690;28;20025;-61
2021/07/03 04:35:39;;;;;;;10.05;5.85;;;34.90;51.60;;;;;;5052960;28;20063;-62
2021/07/03 04:38:05;;;;;;;12.07;7.03;;;35.10;51.20;;;;;;5054103;28;20025;-62
2021/07/03 04:40:31;;;;;;;15.85;7.93;;;35.50;50.60;;;;;;5044399;28;20052;-62
2021/07/03 04:42:57;;;;;;;11.52;6.40;;;35.80;50.10;;;;;;5052395;28;20115;-61
2021/07/03 04:45:23;;;;;;;10.93;6.47;;;36.00;49.60;;;;;;5053245;28;20469;-61
2021/07/03 04:47:49;;;;;;;9.98;5.60;;;36.30;49.30;;;;;;5052909;28;20017;-61
2021/07/03 04:50:14;;;;;;;10.57;6.90;;;36.70;49.10;;;;;;5038951;28;20071;-61
2021/07/03 04:52:40;;;;;;;14.93;7.00;;;36.90;48.60;;;;;;5053098;28;20033;-62
2021/07/03 04:55:07;;;;;;;12.45;7.18;;;37.20;47.90;;;;;;5050152;28;20522;-61
2021/07/03 04:57:33;;;;;;;13.32;8.40;;;37.40;47.30;;;;;;5052839;28;20017;-61
2021/07/03 04:59:59;;;;;;;12.77;7.40;;;37.60;47.20;;;;;;5038121;28;20018;-61
2021/07/03 05:02:25;;;;;;;11.40;7.35;;;37.70;46.70;;;;;;5044466;28;20021;-61
2021/07/03 05:04:50;;;;;;;12.02;8.35;;;37.80;46.60;;;;;;5052723;28;20017;-61
2021/07/03 05:07:16;;;;;;;13.77;7.30;;;38.00;46.50;;;;;;5053514;28;20021;-62
2021/07/03 05:09:42;;;;;;;12.35;8.73;;;38.10;46.00;;;;;;5044034;28;20420;-61
2021/07/03 05:12:07;;;;;;;12.50;8.38;;;38.20;45.90;;;;;;5050528;28;20057;-61
2021/07/03 05:14:33;;;;;;;12.18;7.10;;;38.40;45.70;;;;;;5037085;28;20029;-61
2021/07/03 05:16:59;;;;;;;10.40;7.65;;;38.70;45.40;;;;;;5033010;28;20043;-61
2021/07/03 05:19:25;;;;;;;11.45;7.57;;;38.90;44.90;;;;;;5054926;28;20043;-62
2021/07/03 05:21:51;;;;;;;11.30;7.53;;;39.00;44.40;;;;;;5039833;28;20017;-62
2021/07/03 05:24:17;;;;;;;11.40;7.93;;;39.10;44.90;;;;;;5036830;28;20417;-62
2021/07/03 05:26:42;;;;;;;12.63;8.18;;;39.00;43.80;;;;;;5055522;28;20033;-61
2021/07/03 05:29:08;;;;;;;10.15;6.70;;;38.60;43.70;;;;;;5056432;28;20027;-61
2021/07/03 05:31:34;;;;;;;8.75;6.53;;;37.90;43.80;;;;;;5056356;28;20100;-61
2021/07/03 05:34:00;;;;;;;10.77;6.53;;;37.00;44.60;;;;;;5056686;28;20427;-61
2021/07/03 05:36:26;;;;;;;11.43;7.10;;;36.00;45.80;;;;;;5055924;28;20051;-61
2021/07/03 05:38:52;;;;;;;8.57;7.45;;;34.90;47.00;;;;;;5050312;28;20018;-61
2021/07/03 05:41:19;;;;;;;10.82;8.52;;;33.90;48.30;;;;;;5055145;28;20025;-61
2021/07/03 05:43:45;;;;;;;10.77;8.65;;;33.00;49.80;;;;;;5051094;28;20078;-61
2021/07/03 05:46:12;;;;;;;9.30;7.05;;;32.20;51.10;;;;;;5056283;28;20021;-61
2021/07/03 05:48:40;;;;;;;10.60;8.00;;;31.60;52.20;;;;;;5051630;28;20036;-62
2021/07/03 05:51:06;;;;;;;9.45;7.60;;;31.10;53.40;;;;;;5047309;28;20017;-61
2021/07/03 05:53:32;;;;;;;8.70;7.53;;;30.70;54.10;;;;;;5055312;28;20025;-62
2021/07/03 05:55:58;;;;;;;12.80;8.93;;;30.30;54.70;;;;;;5055494;28;20021;-62
2021/07/03 05:58:23;;;;;;;11.07;8.68;;;30.00;55.70;;;;;;5058056;28;20033;-61
2021/07/03 06:00:49;;;;;;;13.18;9.40;;;29.80;56.40;;;;;;5035973;28;20021;-61
2021/07/03 06:03:15;;;;;;;11.52;9.50;;;29.70;56.90;;;;;;5055498;28;20040;-61
2021/07/03 06:05:40;;;;;;;11.52;8.65;;;29.60;57.40;;;;;;5038155;28;20025;-62
2021/07/03 06:08:06;;;;;;;12.48;9.43;;;29.50;57.60;;;;;;5036556;28;20056;-62
2021/07/03 06:10:33;;;;;;;11.95;10.05;;;29.40;57.90;;;;;;5052806;28;20078;-62
2021/07/03 06:12:59;;;;;;;12.95;9.10;;;29.40;58.20;;;;;;5053060;28;20031;-62
2021/07/03 06:15:24;;;;;;;13.23;8.60;;;29.30;58.40;;;;;;5040850;28;20033;-62
2021/07/03 06:17:50;;;;;;;9.73;8.20;;;29.30;58.70;;;;;;5035663;28;20457;-62
2021/07/03 06:20:16;;;;;;;13.93;7.95;;;29.30;58.70;;;;;;5040896;28;20025;-62
2021/07/03 06:22:42;;;;;;;14.93;7.38;;;29.20;58.90;;;;;;5041217;28;20033;-62
2021/07/03 06:25:09;;;;;;;10.15;7.47;;;29.10;58.90;;;;;;5053645;28;20041;-62
2021/07/03 06:27:36;;;;;;;14.50;8.30;;;29.00;59.20;;;;;;5052743;28;20039;-62
2021/07/03 06:30:04;;;;;;;10.18;8.25;;;29.00;59.60;;;;;;5042731;28;20038;-62
2021/07/03 06:32:29;;;;;;;8.85;6.50;;;28.90;60.10;;;;;;5053021;28;20043;-62
2021/07/03 06:34:55;;;;;;;8.65;6.85;;;28.90;60.00;;;;;;5034258;28;20630;-62
2021/07/03 06:37:20;;;;;;;10.23;6.55;;;28.80;60.10;;;;;;5048616;28;20088;-62
2021/07/03 06:39:46;;;;;;;11.73;7.03;;;28.70;60.10;;;;;;5044762;28;20017;-62
2021/07/03 06:42:12;;;;;;;9.55;6.97;;;28.60;60.40;;;;;;5046940;28;20445;-62
2021/07/03 06:44:38;;;;;;;7.05;6.35;;;28.40;60.50;;;;;;5054759;28;20024;-63
2021/07/03 06:47:04;;;;;;;11.73;6.57;;;28.40;61.60;;;;;;5054982;28;20028;-62
2021/07/03 06:49:30;;;;;;;7.25;5.82;;;28.40;62.00;;;;;;5052886;28;20028;-62
2021/07/03 06:51:56;;;;;;;6.60;5.38;;;28.30;61.40;;;;;;5035021;28;20472;-62
2021/07/03 06:54:21;;;;;;;9.43;5.40;;;28.20;61.10;;;;;;5035086;28;20030;-62
2021/07/03 06:56:47;;;;;;;8.02;5.40;;;28.10;61.40;;;;;;5054268;28;20021;-62
2021/07/03 06:59:13;;;;;;;10.20;4.93;;;28.00;61.80;;;;;;5049225;28;20041;-62
2021/07/03 07:01:39;;;;;;;7.13;5.57;;;28.00;61.80;;;;;;5039869;28;20479;-62
2021/07/03 07:04:05;;;;;;;7.60;5.40;;;27.90;62.30;;;;;;5054804;28;20025;-62
2021/07/03 07:06:31;;;;;;;6.15;4.75;;;27.90;62.20;;;;;;5055667;28;20078;-62
2021/07/03 07:08:56;;;;;;;8.48;5.68;;;27.80;62.40;;;;;;5037704;28;20079;-62
2021/07/03 07:11:22;;;;;;;8.82;5.72;;;27.70;62.70;;;;;;5053015;28;20025;-62
2021/07/03 07:13:48;;;;;;;9.70;5.65;;;27.70;63.10;;;;;;5050864;28;20029;-62
2021/07/03 07:16:13;;;;;;;9.02;5.85;;;27.60;63.20;;;;;;5054147;28;20075;-62
2021/07/03 07:18:39;;;;;;;10.48;6.07;;;27.60;63.40;;;;;;5053232;28;20036;-62
2021/07/03 07:21:05;;;;;;;7.10;6.13;;;27.60;64.20;;;;;;5038394;28;20032;-62
2021/07/03 07:23:30;;;;;;;9.52;7.10;;;27.50;64.10;;;;;;5049154;28;20032;-62
2021/07/03 07:25:56;;;;;;;8.18;7.35;;;27.40;64.30;;;;;;5048451;28;20083;-62
2021/07/03 07:28:22;;;;;;;7.80;6.82;;;27.30;64.50;;;;;;5053778;28;20055;-62
2021/07/03 07:30:47;;;;;;;10.20;7.70;;;27.20;65.10;;;;;;5037932;28;20040;-62
2021/07/03 07:33:13;;;;;;;10.35;7.78;;;27.10;65.20;;;;;;5053741;28;20032;-62
2021/07/03 07:35:39;;;;;;;9.05;7.60;;;27.10;65.70;;;;;;5053568;28;20119;-62
2021/07/03 07:38:04;;;;;;;9.27;7.40;;;27.10;66.00;;;;;;5046639;28;20025;-62
2021/07/03 07:40:30;;;;;;;11.50;7.50;;;27.10;66.00;;;;;;5047124;28;20024;-62
2021/07/03 07:42:56;;;;;;;10.30;7.45;;;27.10;66.60;;;;;;5041454;28;20096;-62
2021/07/03 07:45:22;;;;;;;9.63;7.40;;;27.00;66.10;;;;;;5053753;28;20096;-62
2021/07/03 07:47:48;;;;;;;14.15;8.63;;;27.00;66.10;;;;;;5053425;28;20033;-62
2021/07/03 07:50:15;;;;;;;9.75;7.95;;;27.00;66.40;;;;;;5040950;28;20063;-62
2021/07/03 07:52:40;;;;;;;11.15;8.13;;;27.00;66.90;;;;;;5033622;28;20096;-62
2021/07/03 07:55:06;;;;;;;9.65;7.80;;;27.00;66.70;;;;;;5040212;28;20489;-62
2021/07/03 07:57:32;;;;;;;8.38;7.00;;;27.10;66.70;;;;;;5054441;28;20465;-62
2021/07/03 07:59:58;;;;;;;11.95;8.13;;;27.10;67.00;;;;;;5044115;28;20048;-62
2021/07/03 08:02:23;;;;;;;10.68;7.80;;;27.00;66.70;;;;;;5044646;28;20542;-62
2021/07/03 08:04:49;;;;;;;8.80;6.90;;;27.00;66.80;;;;;;5053395;28;20028;-62
2021/07/03 08:07:15;;;;;;;11.30;8.75;;;26.90;66.90;;;;;;5053173;28;20021;-62
2021/07/03 08:09:44;;;;;;;10.23;7.88;;;26.90;67.70;;;;;;5051538;28;20353;-62
2021/07/03 08:12:11;;;;;;;10.65;7.70;;;26.90;68.00;;;;;;5051739;28;20159;-62
2021/07/03 08:14:36;;;;;;;7.72;6.88;;;26.90;68.90;;;;;;5042697;28;20445;-62
2021/07/03 08:17:02;;;;;;;10.98;8.00;;;26.90;68.70;;;;;;5053286;28;20087;-62
2021/07/03 08:19:28;;;;;;;11.45;7.78;;;26.90;68.60;;;;;;5051910;28;20032;-62
2021/07/03 08:21:57;;;;;;;12.40;8.27;;;26.90;68.60;;;;;;5051153;28;20457;-62
2021/07/03 08:24:24;;;;;;;7.05;6.22;;;26.90;68.80;;;;;;5052765;28;20055;-62
2021/07/03 08:26:49;;;;;;;9.00;7.20;;;26.90;68.40;;;;;;5037621;28;20449;-62
2021/07/03 08:29:15;;;;;;;7.75;6.10;;;26.90;68.30;;;;;;5040592;28;20107;-62
2021/07/03 08:31:41;;;;;;;9.70;6.53;;;26.90;67.70;;;;;;5053604;28;20021;-62
2021/07/03 08:34:06;;;;;;;6.78;6.07;;;26.90;67.60;;;;;;5052904;28;20031;-62
2021/07/03 08:36:32;;;;;;;8.73;6.30;;;27.00;67.30;;;;;;5051750;28;20112;-62
2021/07/03 08:38:58;;;;;;;8.77;6.60;;;26.90;67.50;;;;;;5050892;28;20350;-62
2021/07/03 08:41:24;;;;;;;8.93;6.30;;;26.90;67.50;;;;;;5047757;28;20030;-62
2021/07/03 08:43:50;;;;;;;7.20;6.05;;;26.90;67.80;;;;;;5050746;28;20464;-62
2021/07/03 08:46:20;;;;;;;8.18;5.75;;;27.00;68.10;;;;;;5051517;28;20036;-62
2021/07/03 08:48:51;;;;;;;7.70;5.70;;;27.00;67.60;;;;;;5052287;28;20032;-62
2021/07/03 08:51:18;;;;;;;9.55;5.75;;;27.00;67.50;;;;;;5032884;28;20025;-62
2021/07/03 08:53:43;;;;;;;10.02;6.35;;;27.00;67.00;;;;;;5032233;28;20048;-62
2021/07/03 08:56:09;;;;;;;7.78;6.20;;;27.00;66.80;;;;;;5048302;28;20029;-62
2021/07/03 08:58:35;;;;;;;7.03;5.45;;;27.00;66.40;;;;;;5053045;28;20025;-62
2021/07/03 09:01:04;;;;;;;8.35;6.22;;;27.00;66.30;;;;;;5033272;28;20029;-62
2021/07/03 09:03:30;;;;;;;6.07;5.40;;;27.00;66.60;;;;;;5052956;28;20025;-62
2021/07/03 09:06:04;;;;;;;6.75;5.82;;;27.00;66.30;;;;;;5047417;28;20357;-62
2021/07/03 09:08:30;;;;;;;7.00;5.97;;;27.00;66.70;;;;;;5048691;28;20021;-62
2021/07/03 09:11:08;;;;;;;7.13;6.00;;;27.00;66.40;;;;;;5039837;28;20036;-62
2021/07/03 09:13:37;;;;;;;9.20;6.07;;;27.00;66.70;;;;;;5049251;28;20027;-62
2021/07/03 09:16:04;;;;;;;7.88;5.40;;;26.90;66.70;;;;;;5052776;28;20024;-62
2021/07/03 09:18:31;;;;;;;8.18;6.35;;;26.90;66.40;;;;;;5053275;28;20108;-62
2021/07/03 09:20:59;;;;;;;7.70;6.35;;;26.90;66.00;;;;;;5055626;28;20025;-62
2021/07/03 09:23:39;;;;;;;9.00;5.97;;;26.90;66.80;;;;;;5049093;28;20031;-62
2021/07/03 09:26:07;;;;;;;6.72;6.13;;;26.80;67.00;;;;;;5051957;28;20032;-62
2021/07/03 09:28:40;;;;;;;8.23;6.53;;;26.90;67.20;;;;;;5051686;28;20058;-62
2021/07/03 09:31:10;;;;;;;8.20;7.00;;;26.90;67.60;;;;;;5057174;28;20057;-62
2021/07/03 09:33:38;;;;;;;6.60;5.90;;;26.90;68.10;;;;;;5051813;28;20060;-62
2021/07/03 09:36:13;;;;;;;7.07;6.38;;;27.00;68.40;;;;;;5052573;28;20025;-62
2021/07/03 09:38:46;;;;;;;11.75;7.35;;;27.00;68.20;;;;;;5046455;28;20028;-62
2021/07/03 09:41:14;;;;;;;7.30;6.03;;;26.90;68.50;;;;;;5051863;28;20021;-62
2021/07/03 09:43:49;;;;;;;8.70;6.72;;;26.90;68.70;;;;;;5051324;28;20083;-62
2021/07/03 09:46:35;;;;;;;10.85;7.22;;;26.90;68.60;;;;;;5052922;28;20075;-62
2021/07/03 09:49:07;;;;;;;7.80;6.95;;;27.00;68.80;;;;;;5052084;28;20036;-62
2021/07/03 09:51:33;;;;;;;7.88;7.07;;;26.90;69.10;;;;;;5052506;28;20021;-62
2021/07/03 09:53:59;;;;;;;8.05;7.22;;;26.90;68.90;;;;;;5052414;28;20114;-62
2021/07/03 09:56:26;;;;;;;9.02;7.05;;;26.90;69.00;;;;;;5047307;28;20048;-62
2021/07/03 09:58:52;;;;;;;7.85;7.15;;;27.00;69.30;;;;;;5043877;28;20032;-62
2021/07/03 10:01:18;;;;;;;9.07;6.53;;;26.90;69.30;;;;;;5052478;28;20025;-62
2021/07/03 10:03:44;;;;;;;9.82;7.10;;;27.00;69.20;;;;;;5053563;28;20055;-62
2021/07/03 10:06:25;;;;;;;8.20;6.93;;;27.00;69.20;;;;;;5056208;28;20025;-62
2021/07/03 10:08:55;;;;;;;8.95;7.53;;;27.00;69.20;;;;;;5067640;28;20029;-62
2021/07/03 10:11:25;;;;;;;10.25;7.25;;;27.00;69.50;;;;;;5046699;28;20418;-62
2021/07/03 10:13:59;;;;;;;8.23;7.25;;;27.00;69.60;;;;;;5051653;28;20380;-62
2021/07/03 10:16:25;;;;;;;8.30;7.25;;;27.00;69.50;;;;;;5055900;28;20020;-62
2021/07/03 10:18:50;;;;;;;9.68;7.22;;;27.00;70.00;;;;;;5056224;28;20352;-62
2021/07/03 10:21:21;;;;;;;9.82;6.68;;;27.00;70.30;;;;;;5055617;28;20503;-62
2021/07/03 10:23:47;;;;;;;8.60;6.50;;;27.00;70.20;;;;;;5042055;28;20092;-62
2021/07/03 10:26:14;;;;;;;8.63;7.40;;;26.90;70.30;;;;;;5045597;28;20429;-62
2021/07/03 10:28:42;;;;;;;10.27;8.52;;;26.80;70.50;;;;;;5055630;28;20039;-62
2021/07/03 10:31:12;;;;;;;7.82;7.03;;;26.70;71.20;;;;;;5059250;28;20036;-62
2021/07/03 10:33:45;;;;;;;;;;;26.70;71.60;;;;;;5055867;28;20029;-62
2021/07/03 10:36:26;;;;;;;7.68;6.75;;;26.60;72.10;;;;;;5055368;28;19923;-62
2021/07/03 10:38:51;;;;;;;10.82;7.43;;;26.60;71.80;;;;;;5055544;28;20155;-62
2021/07/03 10:41:26;;;;;;;9.13;7.63;;;26.50;71.90;;;;;;5050593;28;20100;-62
2021/07/03 10:43:54;;;;;;;8.18;7.30;;;26.40;72.20;;;;;;5055519;28;20032;-62
2021/07/03 10:46:26;;;;;;;8.50;7.60;;;26.30;72.10;;;;;;5055314;28;20029;-62
2021/07/03 10:49:00;;;;;;;13.48;9.10;;;26.30;73.10;;;;;;5056015;28;20082;-62
2021/07/03 10:51:35;;;;;;;10.93;9.18;;;26.20;73.20;;;;;;5055563;28;20028;-62
2021/07/03 10:54:24;;;;;;;10.75;7.60;;;26.20;73.40;;;;;;5055054;28;20512;-62
2021/07/03 10:57:02;;;;;;;11.05;7.75;;;26.20;72.80;;;;;;5053756;28;20067;-62
2021/07/03 10:59:29;;;;;;;8.23;7.50;;;26.20;73.30;;;;;;5054897;28;20449;-62
2021/07/03 11:02:08;;;;;;;9.27;7.43;;;26.20;73.10;;;;;;5055376;28;20461;-62
2021/07/03 11:04:45;;;;;;;9.00;7.88;;;26.20;73.50;;;;;;5042687;28;20450;-62
2021/07/03 11:07:12;;;;;;;9.80;7.65;;;26.20;73.40;;;;;;5054966;28;20524;-62
2021/07/03 11:09:38;;;;;;;10.00;7.22;;;26.10;73.90;;;;;;5048730;28;20388;-62
2021/07/03 11:12:30;;;;;;;9.32;7.82;;;26.20;73.80;;;;;;5048586;28;20100;-62
2021/07/03 11:14:58;;;;;;;8.98;7.55;;;26.20;73.40;;;;;;5059629;28;20025;-62
2021/07/03 11:17:26;;;;;;;8.57;7.68;;;26.20;73.10;;;;;;5053922;28;20111;-62
2021/07/03 11:19:53;;;;;;;7.95;6.80;;;26.20;73.80;;;;;;5054746;28;20036;-62
2021/07/03 11:22:24;;;;;;;10.40;7.38;;;26.20;73.50;;;;;;5055144;28;20032;-62
2021/07/03 11:24:52;;;;;;;7.82;7.00;;;26.20;73.40;;;;;;5053380;28;20049;-62
2021/07/03 11:27:35;;;;;;;8.05;7.28;;;26.20;73.40;;;;;;5053178;28;20025;-62
2021/07/03 11:30:07;;;;;;;8.88;6.40;;;26.30;73.10;;;;;;5054518;28;20385;-62
2021/07/03 11:32:33;;;;;;;8.52;7.57;;;26.30;72.60;;;;;;5054277;28;20524;-62
2021/07/03 11:35:04;;;;;;;10.75;7.47;;;26.30;72.60;;;;;;5054415;28;20056;-62
2021/07/03 11:37:35;;;;;;;9.82;7.43;;;26.30;73.10;;;;;;5054399;28;20041;-62
2021/07/03 11:40:03;;;;;;;;;;;26.30;72.80;;;;;;5054355;28;20044;-62
2021/07/03 11:42:37;;;;;;;7.78;7.03;;;26.30;72.80;;;;;;5061816;28;19908;-62
2021/07/03 11:45:08;;;;;;;8.02;7.03;;;26.30;73.30;;;;;;5054253;28;20021;-62
2021/07/03 11:47:46;;;;;;;8.25;7.45;;;26.30;73.20;;;;;;5054472;28;20344;-62
2021/07/03 11:50:26;;;;;;;9.90;7.53;;;26.40;73.10;;;;;;5054156;28;20529;-62
2021/07/03 11:52:54;;;;;;;9.27;8.40;;;26.40;73.00;;;;;;5053138;28;20021;-62
2021/07/03 11:55:23;;;;;;;9.10;7.97;;;26.40;73.40;;;;;;5054858;28;20033;-62
2021/07/03 11:57:50;;;;;;;8.25;7.35;;;26.50;73.30;;;;;;5054042;28;20446;-62
2021/07/03 12:00:24;;;;;;;7.97;7.15;;;26.50;73.30;;;;;;5053798;28;20449;-62
2021/07/03 12:02:50;;;;;;;8.38;7.50;;;26.50;72.90;;;;;;5053649;28;20033;-62
2021/07/03 12:05:22;;;;;;;9.30;7.50;;;26.50;72.80;;;;;;5053668;28;20017;-62
2021/07/03 12:08:01;;;;;;;9.07;7.88;;;26.50;72.90;;;;;;5050683;28;20045;-62
2021/07/03 12:10:40;;;;;;;8.80;7.82;;;26.60;72.30;;;;;;5053485;28;20392;-62
2021/07/03 12:13:09;;;;;;;10.98;8.65;;;26.60;72.30;;;;;;5051633;28;20105;-62
2021/07/03 12:15:35;;;;;;;11.75;9.25;;;26.60;73.00;;;;;;5050805;28;20095;-62
2021/07/03 12:18:01;;;;;;;10.38;9.27;;;26.50;73.00;;;;;;5059433;28;20108;-62
2021/07/03 12:20:27;;;;;;;11.55;10.00;;;26.50;73.40;;;;;;5053355;28;20155;-62
2021/07/03 12:23:02;;;;;;;11.85;9.18;;;26.60;73.80;;;;;;5053578;28;20455;-62
2021/07/03 12:25:29;;;;;;;11.02;9.45;;;26.60;73.70;;;;;;5051474;28;20493;-62
2021/07/03 12:28:07;;;;;;;10.43;8.57;;;26.50;73.60;;;;;;5051585;28;20343;-62
2021/07/03 12:30:33;;;;;;;9.95;8.77;;;26.50;73.80;;;;;;5054000;28;20021;-62
2021/07/03 12:33:07;;;;;;;9.38;8.15;;;26.50;74.20;;;;;;5038596;28;20093;-62
2021/07/03 12:35:47;;;;;;;11.50;10.32;;;26.50;74.60;;;;;;5051357;28;20025;-62
2021/07/03 12:38:13;;;;;;;10.57;8.93;;;26.50;74.90;;;;;;5044350;28;20056;-62
2021/07/03 12:40:43;;;;;;;8.95;8.02;;;26.50;74.90;;;;;;5043149;28;20053;-62
2021/07/03 12:43:10;;;;;;;8.65;7.75;;;26.50;74.60;;;;;;5050774;28;20025;-62
2021/07/03 12:45:36;;;;;;;10.88;8.35;;;26.50;73.90;;;;;;5052864;28;20021;-62